createdAt,value
2019-04-01T00:01:21.356Z,99.90
2019-04-01T00:03:52.594Z,99.90
2019-04-01T00:06:23.562Z,99.90
2019-04-01T00:08:55.507Z,99.90
2019-04-01T00:13:57.702Z,99.90
2019-04-01T00:16:28.678Z,99.90
2019-04-01T00:19:03.394Z,99.90
2019-04-01T00:21:32.290Z,99.90
2019-04-01T00:26:33.329Z,99.90
2019-04-01T00:29:04.410Z,99.90
2019-04-01T00:31:35.372Z,99.90
2019-04-01T00:34:07.693Z,99.90
2019-04-01T00:39:09.742Z,99.90
2019-04-01T00:41:49.810Z,99.90
2019-04-01T00:44:20.774Z,99.90
2019-04-01T00:46:51.770Z,99.90
2019-04-01T00:49:22.734Z,99.90
2019-04-01T00:51:53.705Z,99.90
2019-04-01T00:54:25.039Z,99.90
2019-04-01T00:56:56.010Z,99.90
2019-04-01T00:59:26.988Z,99.90
2019-04-01T01:01:57.961Z,99.90
2019-04-01T01:04:28.914Z,99.90
2019-04-01T01:06:59.842Z,99.90
2019-04-01T01:09:30.800Z,99.90
2019-04-01T01:12:01.807Z,99.90
2019-04-01T01:14:50.690Z,99.90
2019-04-01T01:17:22.038Z,99.90
2019-04-01T01:19:53.010Z,99.90
2019-04-01T01:22:24.010Z,99.90
2019-04-01T01:24:56.058Z,99.90
2019-04-01T01:27:27.027Z,99.90
2019-04-01T01:29:58.003Z,99.90
2019-04-01T01:34:59.141Z,99.90
2019-04-01T01:37:30.178Z,99.90
2019-04-01T01:40:02.248Z,99.90
2019-04-01T01:42:33.282Z,99.90
2019-04-01T01:45:04.489Z,99.90
2019-04-01T01:47:35.488Z,99.90
2019-04-01T01:50:07.058Z,99.90
2019-04-01T01:52:38.058Z,99.90
2019-04-01T01:55:09.034Z,99.90
2019-04-01T01:57:40.114Z,99.90
2019-04-01T02:00:13.130Z,99.90
2019-04-01T02:02:44.205Z,99.90
2019-04-01T02:05:15.262Z,99.90
2019-04-01T02:07:46.298Z,99.90
2019-04-01T02:10:17.361Z,99.90
2019-04-01T02:12:48.350Z,99.90
2019-04-01T02:15:19.326Z,99.90
2019-04-01T02:17:50.325Z,99.90
2019-04-01T02:20:21.306Z,99.90
2019-04-01T02:22:52.290Z,99.90
2019-04-01T02:25:23.265Z,99.90
2019-04-01T02:27:55.326Z,99.90
2019-04-01T02:30:26.313Z,99.90
2019-04-01T02:32:57.302Z,99.90
2019-04-01T02:35:28.286Z,99.90
2019-04-01T02:37:59.295Z,99.90
2019-04-01T02:40:42.445Z,99.90
2019-04-01T02:43:13.443Z,99.90
2019-04-01T02:45:44.419Z,99.90
2019-04-01T02:48:15.406Z,99.90
2019-04-01T02:50:46.383Z,99.90
2019-04-01T02:53:17.421Z,99.90
2019-04-01T02:55:48.395Z,99.90
2019-04-01T02:58:19.410Z,99.90
2019-04-01T03:00:50.459Z,99.90
2019-04-01T03:03:21.782Z,99.90
2019-04-01T03:05:53.113Z,99.90
2019-04-01T03:08:24.077Z,99.90
2019-04-01T03:10:55.420Z,99.90
2019-04-01T03:13:26.424Z,99.90
2019-04-01T03:15:57.699Z,99.90
2019-04-01T03:18:28.747Z,99.90
2019-04-01T03:20:59.659Z,99.90
2019-04-01T03:26:00.833Z,99.90
2019-04-01T03:28:32.191Z,99.90
2019-04-01T03:31:03.169Z,99.90
2019-04-01T03:33:34.381Z,99.90
2019-04-01T03:36:05.523Z,99.90
2019-04-01T03:38:36.830Z,99.90
2019-04-01T03:41:07.800Z,99.90
2019-04-01T03:43:38.759Z,99.90
2019-04-01T03:46:09.731Z,99.90
2019-04-01T03:48:41.102Z,99.90
2019-04-01T03:51:13.142Z,99.90
2019-04-01T03:56:14.242Z,99.90
2019-04-01T03:58:45.212Z,99.90
2019-04-01T04:01:16.221Z,99.90
2019-04-01T04:03:47.190Z,99.90
2019-04-01T04:06:18.185Z,99.90
2019-04-01T04:08:49.158Z,99.90
2019-04-01T04:11:20.223Z,99.90
2019-04-01T04:13:51.218Z,99.90
2019-04-01T04:18:52.627Z,99.90
2019-04-01T04:21:24.217Z,99.90
2019-04-01T04:23:55.580Z,99.90
2019-04-01T04:26:26.555Z,99.90
2019-04-01T04:28:58.950Z,99.90
2019-04-01T04:31:29.912Z,99.90
2019-04-01T04:34:00.902Z,99.90
2019-04-01T04:36:31.875Z,99.90
2019-04-01T04:39:04.498Z,99.90
2019-04-01T04:41:37.002Z,99.90
2019-04-01T04:44:08.020Z,99.90
2019-04-01T04:46:39.056Z,99.90
2019-04-01T04:49:10.173Z,99.90
2019-04-01T04:51:41.438Z,99.90
2019-04-01T04:54:12.666Z,99.90
2019-04-01T04:56:43.729Z,99.90
2019-04-01T04:59:14.926Z,99.90
2019-04-01T05:01:47.271Z,99.90
2019-04-01T05:04:18.604Z,99.90
2019-04-01T05:06:49.583Z,99.90
2019-04-01T05:09:20.582Z,99.90
2019-04-01T05:11:51.577Z,99.90
2019-04-01T05:16:52.713Z,99.90
2019-04-01T05:19:23.699Z,99.90
2019-04-01T05:26:57.396Z,99.90
2019-04-01T05:29:30.544Z,99.90
2019-04-01T05:32:04.448Z,99.90
2019-04-01T05:37:09.080Z,99.90
2019-04-01T05:39:39.955Z,99.90
2019-04-01T05:42:10.948Z,99.90
2019-04-01T05:44:42.078Z,99.90
2019-04-01T05:47:13.233Z,99.90
2019-04-01T05:49:44.311Z,99.90
2019-04-01T05:52:15.370Z,99.90
2019-04-01T05:54:46.366Z,99.90
2019-04-01T05:57:17.471Z,99.90
2019-04-01T05:59:48.498Z,99.90
2019-04-01T06:02:19.702Z,99.90
2019-04-01T06:04:50.695Z,99.90
2019-04-01T06:07:21.759Z,99.90
2019-04-01T06:09:52.666Z,99.90
2019-04-01T06:12:24.213Z,99.90
2019-04-01T06:14:55.382Z,99.90
2019-04-01T06:17:26.398Z,99.90
2019-04-01T06:19:57.371Z,99.90
2019-04-01T06:22:28.490Z,99.90
2019-04-01T06:24:59.814Z,99.90
2019-04-01T06:27:31.511Z,99.90
2019-04-01T06:30:02.950Z,99.90
2019-04-01T06:32:33.914Z,99.90
2019-04-01T06:35:05.166Z,99.90
2019-04-01T06:37:36.715Z,99.90
2019-04-01T06:40:07.814Z,99.90
2019-04-01T06:42:38.770Z,99.90
2019-04-01T06:45:09.991Z,99.90
2019-04-01T06:47:41.034Z,96.20
2019-04-01T06:50:12.038Z,93.70
2019-04-01T06:52:43.104Z,92.00
2019-04-01T06:55:14.090Z,90.50
2019-04-01T07:00:15.369Z,85.00
2019-04-01T07:02:46.566Z,78.90
2019-04-01T07:05:17.538Z,78.20
2019-04-01T07:07:48.618Z,76.40
2019-04-01T07:15:19.934Z,71.10
2019-04-01T07:17:50.934Z,66.00
2019-04-01T07:20:21.902Z,65.50
2019-04-01T07:22:52.974Z,64.50
2019-04-01T07:25:23.982Z,61.60
2019-04-01T07:27:54.955Z,60.20
2019-04-01T07:30:25.922Z,57.60
2019-04-01T07:32:57.322Z,57.40
2019-04-01T07:35:28.291Z,56.30
2019-04-01T07:37:59.437Z,55.50
2019-04-01T07:43:01.735Z,54.30
2019-04-01T07:45:32.702Z,50.30
2019-04-01T07:53:05.061Z,48.50
2019-04-01T07:55:37.210Z,46.40
2019-04-01T07:58:08.842Z,44.30
2019-04-01T08:00:39.802Z,44.90
2019-04-01T08:03:11.370Z,45.80
2019-04-01T08:05:42.890Z,47.10
2019-04-01T08:08:13.990Z,41.70
2019-04-01T08:10:44.970Z,40.50
2019-04-01T08:13:16.041Z,39.70
2019-04-01T08:15:47.814Z,37.40
2019-04-01T08:18:20.502Z,37.40
2019-04-01T08:20:52.066Z,37.90
2019-04-01T08:23:23.582Z,32.00
2019-04-01T08:28:26.179Z,32.40
2019-04-01T08:30:57.797Z,32.70
2019-04-01T08:33:29.422Z,29.60
2019-04-01T08:36:00.930Z,28.70
2019-04-01T08:38:32.443Z,28.30
2019-04-01T08:41:03.974Z,28.40
2019-04-01T08:43:35.508Z,28.30
2019-04-01T08:46:07.058Z,27.70
2019-04-01T08:48:38.586Z,27.80
2019-04-01T08:51:10.178Z,29.30
2019-04-01T08:53:41.710Z,29.50
2019-04-01T08:58:43.993Z,28.60
2019-04-01T09:01:15.461Z,30.10
2019-04-01T09:06:17.838Z,31.10
2019-04-01T09:08:49.659Z,30.40
2019-04-01T09:11:21.622Z,30.10
2019-04-01T09:16:24.623Z,28.80
2019-04-01T09:18:56.149Z,29.00
2019-04-01T09:21:27.707Z,28.90
2019-04-01T09:23:59.218Z,29.40
2019-04-01T09:26:30.778Z,28.40
2019-04-01T09:29:02.339Z,28.80
2019-04-01T09:31:33.875Z,30.00
2019-04-01T09:34:05.514Z,28.70
2019-04-01T09:36:37.086Z,28.50
2019-04-01T09:39:08.689Z,29.80
2019-04-01T09:41:40.327Z,30.60
2019-04-01T09:44:11.855Z,32.20
2019-04-01T09:46:43.384Z,28.70
2019-04-01T09:49:14.910Z,28.40
2019-04-01T09:51:48.893Z,29.90
2019-04-01T09:54:19.610Z,29.50
2019-04-01T09:56:52.219Z,28.20
2019-04-01T09:59:23.822Z,29.50
2019-04-01T10:01:55.372Z,27.60
2019-04-01T10:04:26.982Z,26.30
2019-04-01T10:06:58.550Z,24.90
2019-04-01T10:09:30.070Z,25.60
2019-04-01T10:12:01.710Z,25.70
2019-04-01T10:14:33.235Z,27.30
2019-04-01T10:17:04.770Z,28.00
2019-04-01T10:22:07.100Z,26.30
2019-04-01T10:24:38.694Z,27.60
2019-04-01T10:27:10.178Z,26.70
2019-04-01T10:29:41.711Z,26.80
2019-04-01T10:32:13.241Z,25.30
2019-04-01T10:34:44.786Z,27.50
2019-04-01T10:37:16.322Z,27.20
2019-04-01T10:39:47.922Z,26.50
2019-04-01T10:42:19.479Z,25.00
2019-04-01T10:44:51.032Z,25.90
2019-04-01T10:47:22.641Z,26.30
2019-04-01T10:52:24.975Z,25.40
2019-04-01T10:54:56.517Z,24.20
2019-04-01T10:57:28.009Z,26.90
2019-04-01T10:59:59.589Z,26.40
2019-04-01T11:02:31.208Z,27.80
2019-04-01T11:05:02.832Z,26.30
2019-04-01T11:07:34.506Z,25.80
2019-04-01T11:10:06.838Z,26.10
2019-04-01T11:12:38.395Z,26.90
2019-04-01T11:15:10.232Z,26.30
2019-04-01T11:17:41.777Z,27.50
2019-04-01T11:20:13.414Z,27.60
2019-04-01T11:22:44.909Z,25.80
2019-04-01T11:25:18.152Z,25.80
2019-04-01T11:27:49.790Z,25.40
2019-04-01T11:30:21.347Z,23.20
2019-04-01T11:32:52.935Z,24.70
2019-04-01T11:40:25.909Z,25.00
2019-04-01T11:42:57.884Z,25.60
2019-04-01T11:45:29.803Z,25.70
2019-04-01T11:50:32.143Z,24.70
2019-04-01T11:53:03.667Z,25.50
2019-04-01T11:55:35.338Z,26.00
2019-04-01T11:58:06.926Z,26.30
2019-04-01T12:00:38.442Z,26.00
2019-04-01T12:05:40.742Z,25.70
2019-04-01T12:08:12.326Z,24.90
2019-04-01T12:13:14.582Z,27.20
2019-04-01T12:15:46.289Z,26.60
2019-04-01T12:18:17.870Z,25.90
2019-04-01T12:23:20.099Z,25.10
2019-04-01T12:25:51.614Z,26.00
2019-04-01T12:28:23.110Z,26.30
2019-04-01T12:30:54.626Z,26.40
2019-04-01T12:33:26.518Z,24.70
2019-04-01T12:35:59.289Z,25.00
2019-04-01T12:38:30.751Z,25.20
2019-04-01T12:41:02.286Z,25.50
2019-04-01T12:43:33.822Z,26.80
2019-04-01T12:46:05.357Z,27.00
2019-04-01T12:48:36.914Z,26.40
2019-04-01T12:51:08.451Z,25.40
2019-04-01T12:53:39.982Z,24.00
2019-04-01T12:56:11.421Z,23.40
2019-04-01T12:58:42.962Z,25.20
2019-04-01T13:01:14.483Z,25.30
2019-04-01T13:06:16.685Z,25.20
2019-04-01T13:08:48.180Z,24.60
2019-04-01T13:11:19.819Z,24.70
2019-04-01T13:13:51.338Z,24.20
2019-04-01T13:16:23.689Z,23.70
2019-04-01T13:18:55.223Z,23.90
2019-04-01T13:21:26.743Z,24.30
2019-04-01T13:26:29.136Z,23.50
2019-04-01T13:29:00.647Z,23.60
2019-04-01T13:31:32.186Z,24.10
2019-04-01T13:34:03.748Z,25.00
2019-04-01T13:36:35.279Z,24.80
2019-04-01T13:39:07.842Z,24.90
2019-04-01T13:41:42.538Z,25.30
2019-04-01T13:44:12.752Z,24.30
2019-04-01T13:46:44.286Z,25.50
2019-04-01T13:49:16.930Z,26.50
2019-04-01T13:51:49.534Z,26.00
2019-04-01T13:54:21.137Z,27.60
2019-04-01T13:56:52.633Z,27.20
2019-04-01T13:59:24.194Z,27.70
2019-04-01T14:01:56.453Z,26.30
2019-04-01T14:04:28.634Z,26.40
2019-04-01T14:07:00.182Z,26.80
2019-04-01T14:09:31.880Z,25.10
2019-04-01T14:14:34.174Z,26.60
2019-04-01T14:17:05.694Z,27.30
2019-04-01T14:19:37.262Z,27.10
2019-04-01T14:22:09.837Z,26.00
2019-04-01T14:24:42.758Z,25.00
2019-04-01T14:27:14.495Z,22.80
2019-04-01T14:29:46.022Z,25.70
2019-04-01T14:32:18.290Z,27.50
2019-04-01T14:34:50.583Z,27.40
2019-04-01T14:37:25.657Z,27.50
2019-04-01T14:39:55.453Z,27.20
2019-04-01T14:42:26.974Z,27.80
2019-04-01T14:44:59.198Z,26.70
2019-04-01T14:47:30.729Z,27.20
2019-04-01T14:50:02.974Z,27.70
2019-04-01T14:52:35.179Z,27.40
2019-04-01T14:55:06.886Z,27.40
2019-04-01T14:57:40.637Z,28.10
2019-04-01T15:02:47.154Z,27.40
2019-04-01T15:05:18.910Z,27.90
2019-04-01T15:07:52.254Z,26.30
2019-04-01T15:10:24.246Z,26.70
2019-04-01T15:13:05.073Z,28.60
2019-04-01T15:15:29.249Z,29.10
2019-04-01T15:20:31.206Z,30.40
2019-04-01T15:23:03.016Z,29.60
2019-04-01T15:25:34.198Z,29.90
2019-04-01T15:28:08.058Z,29.80
2019-04-01T15:30:39.030Z,30.20
2019-04-01T15:33:11.258Z,30.10
2019-04-01T15:35:43.014Z,30.10
2019-04-01T15:38:14.606Z,31.60
2019-04-01T15:40:47.077Z,31.30
2019-04-01T15:43:18.201Z,31.30
2019-04-01T15:45:49.418Z,31.10
2019-04-01T15:48:20.746Z,31.90
2019-04-01T15:53:23.451Z,32.40
2019-04-01T15:55:54.626Z,33.00
2019-04-01T15:58:26.047Z,34.50
2019-04-01T16:00:57.138Z,34.10
2019-04-01T16:05:58.187Z,35.70
2019-04-01T16:10:59.359Z,38.20
2019-04-01T16:16:00.742Z,42.90
2019-04-01T16:18:31.744Z,44.30
2019-04-01T16:23:33.047Z,45.80
2019-04-01T16:28:34.614Z,46.20
2019-04-01T16:31:05.700Z,47.40
2019-04-01T16:33:36.678Z,47.60
2019-04-01T16:38:37.990Z,46.90
2019-04-01T16:41:09.074Z,48.00
2019-04-01T16:46:10.170Z,48.70
2019-04-01T16:51:11.284Z,48.40
2019-04-01T16:53:44.390Z,49.30
2019-04-01T17:01:23.331Z,52.90
2019-04-01T17:14:02.431Z,53.30
2019-04-01T17:21:34.084Z,54.10
2019-04-01T17:27:04.958Z,54.80
2019-04-01T17:29:36.334Z,55.80
2019-04-01T17:32:07.738Z,56.70
2019-04-01T17:34:38.830Z,56.90
2019-04-01T17:37:09.803Z,57.20
2019-04-01T17:39:41.158Z,57.50
2019-04-01T17:47:13.530Z,57.80
2019-04-01T17:49:44.599Z,58.00
2019-04-01T17:52:15.563Z,58.40
2019-04-01T17:54:48.003Z,58.50
2019-04-01T17:57:19.470Z,59.40
2019-04-01T18:04:56.455Z,60.80
2019-04-01T18:07:28.752Z,62.10
2019-04-01T18:10:00.067Z,61.30
2019-04-01T18:12:31.442Z,60.90
2019-04-01T18:15:03.322Z,61.90
2019-04-01T18:17:36.073Z,60.70
2019-04-01T18:22:39.093Z,60.80
2019-04-01T18:25:10.706Z,60.70
2019-04-01T18:27:41.790Z,61.70
2019-04-01T18:30:13.233Z,61.10
2019-04-01T18:32:44.194Z,61.80
2019-04-01T18:35:15.267Z,61.70
2019-04-01T18:37:46.450Z,62.10
2019-04-01T18:40:31.467Z,62.50
2019-04-01T18:42:50.249Z,62.90
2019-04-01T18:45:22.202Z,63.00
2019-04-01T18:47:53.382Z,63.00
2019-04-01T18:50:24.458Z,63.20
2019-04-01T18:52:56.982Z,63.00
2019-04-01T18:55:28.034Z,63.40
2019-04-01T18:57:59.011Z,64.00
2019-04-01T19:00:30.711Z,64.30
2019-04-01T19:03:01.698Z,64.70
2019-04-01T19:05:32.741Z,65.60
2019-04-01T19:08:04.389Z,66.50
2019-04-01T19:10:39.072Z,66.40
2019-04-01T19:13:12.274Z,67.00
2019-04-01T19:15:41.955Z,66.50
2019-04-01T19:18:13.648Z,67.30
2019-04-01T19:23:16.669Z,68.40
2019-04-01T19:25:48.035Z,68.60
2019-04-01T19:28:19.139Z,68.90
2019-04-01T19:30:50.204Z,69.90
2019-04-01T19:33:21.414Z,71.00
2019-04-01T19:35:52.538Z,72.20
2019-04-01T19:38:25.041Z,72.60
2019-04-01T19:40:59.546Z,73.20
2019-04-01T19:43:28.886Z,74.60
2019-04-01T19:45:59.955Z,76.60
2019-04-01T19:48:31.338Z,77.30
2019-04-01T19:51:03.295Z,77.40
2019-04-01T19:53:34.652Z,78.70
2019-04-01T19:56:06.453Z,79.50
2019-04-01T19:58:38.138Z,79.50
2019-04-01T20:01:09.628Z,80.90
2019-04-01T20:03:40.955Z,82.70
2019-04-01T20:06:12.511Z,83.40
2019-04-01T20:08:45.165Z,85.10
2019-04-01T20:11:18.122Z,87.90
2019-04-01T20:13:49.138Z,88.50
2019-04-01T20:16:20.194Z,90.00
2019-04-01T20:18:52.279Z,90.00
2019-04-01T20:21:23.382Z,90.30
2019-04-01T20:23:54.985Z,90.70
2019-04-01T20:26:26.071Z,91.00
2019-04-01T20:28:57.186Z,92.30
2019-04-01T20:31:28.154Z,91.80
2019-04-01T20:33:59.146Z,91.40
2019-04-01T20:36:31.730Z,91.30
2019-04-01T20:39:06.536Z,90.10
2019-04-01T20:41:37.738Z,90.30
2019-04-01T20:44:08.787Z,89.90
2019-04-01T20:46:39.742Z,87.20
2019-04-01T20:49:10.756Z,87.10
2019-04-01T20:51:41.722Z,85.70
2019-04-01T20:56:42.918Z,84.40
2019-04-01T20:59:15.359Z,84.00
2019-04-01T21:04:19.013Z,83.40
2019-04-01T21:09:23.117Z,83.20
2019-04-01T21:11:56.166Z,83.20
2019-04-01T21:14:28.726Z,83.10
2019-04-01T21:16:59.938Z,83.10
2019-04-01T21:19:37.801Z,83.80
2019-04-01T21:22:09.277Z,84.80
2019-04-01T21:24:40.283Z,85.60
2019-04-01T21:27:24.441Z,86.40
2019-04-01T21:29:57.650Z,86.30
2019-04-01T21:32:28.590Z,86.40
2019-04-01T21:34:59.666Z,85.90
2019-04-01T21:37:30.653Z,86.40
2019-04-01T21:40:01.639Z,87.50
2019-04-01T21:42:32.675Z,86.80
2019-04-01T21:45:03.868Z,87.50
2019-04-01T21:47:34.934Z,87.50
2019-04-01T21:50:06.902Z,86.90
2019-04-01T21:52:37.910Z,86.90
2019-04-01T21:55:08.959Z,89.10
2019-04-01T21:57:39.953Z,90.00
2019-04-01T22:00:17.810Z,88.90
2019-04-01T22:02:49.446Z,90.20
2019-04-01T22:05:20.502Z,90.40
2019-04-01T22:07:51.417Z,90.70
2019-04-01T22:10:22.370Z,90.50
2019-04-01T22:12:53.658Z,91.00
2019-04-01T22:15:24.734Z,90.20
2019-04-01T22:17:55.681Z,91.00
2019-04-01T22:20:26.591Z,90.80
2019-04-01T22:22:57.546Z,91.50
2019-04-01T22:25:29.142Z,91.90
2019-04-01T22:28:01.362Z,92.90
2019-04-01T22:30:32.318Z,93.30
2019-04-01T22:33:03.646Z,94.00
2019-04-01T22:35:38.968Z,94.60
2019-04-01T22:38:07.542Z,95.80
2019-04-01T22:40:38.498Z,95.90
2019-04-01T22:43:09.550Z,95.60
2019-04-01T22:45:40.430Z,95.30
2019-04-01T22:48:11.346Z,95.20
2019-04-01T22:50:42.305Z,96.00
2019-04-01T22:53:13.494Z,96.00
2019-04-01T22:55:44.437Z,95.90
2019-04-01T22:58:15.361Z,95.30
2019-04-01T23:00:47.177Z,94.30
2019-04-01T23:03:18.719Z,94.00
2019-04-01T23:05:49.682Z,93.80
2019-04-01T23:08:20.673Z,93.30
2019-04-01T23:10:51.630Z,93.30
2019-04-01T23:13:22.697Z,92.70
2019-04-01T23:15:53.582Z,91.90
2019-04-01T23:18:24.542Z,91.20
2019-04-01T23:20:55.502Z,89.40
2019-04-01T23:23:27.283Z,87.80
2019-04-01T23:25:58.965Z,88.20
2019-04-01T23:28:30.142Z,88.00
2019-04-01T23:31:01.071Z,86.70
2019-04-01T23:33:32.026Z,86.00
2019-04-01T23:36:03.019Z,84.90
2019-04-01T23:38:33.982Z,85.00
2019-04-01T23:41:05.077Z,82.90
2019-04-01T23:43:36.030Z,83.80
2019-04-01T23:46:07.306Z,82.60
2019-04-01T23:48:38.234Z,82.20
2019-04-01T23:51:09.190Z,82.10
2019-04-01T23:53:40.217Z,82.20
2019-04-01T23:56:11.102Z,81.20
2019-04-01T23:58:42.086Z,80.00
